createdAt,value
2017-11-14T00:02:07.443Z,88.47
2017-11-14T00:04:56.492Z,88.98
2017-11-14T00:07:54.281Z,89.04
2017-11-14T00:10:52.114Z,88.96
2017-11-14T00:23:35.646Z,88.21
2017-11-14T00:26:25.231Z,88.22
2017-11-14T00:45:38.714Z,87.23
2017-11-14T01:05:14.402Z,90.10
2017-11-14T01:24:30.793Z,90.56
2017-11-14T01:27:28.603Z,90.37
2017-11-14T01:46:40.079Z,91.88
2017-11-14T01:49:37.218Z,91.96
2017-11-14T01:52:03.060Z,91.93
2017-11-14T01:54:52.405Z,91.85
2017-11-14T02:14:04.731Z,88.25
2017-11-14T02:33:40.567Z,89.01
2017-11-14T02:36:06.433Z,88.77
2017-11-14T02:55:42.249Z,89.45
2017-11-14T02:58:08.099Z,89.34
2017-11-14T03:17:44.700Z,89.11
2017-11-14T03:36:56.130Z,89.47
2017-11-14T03:39:53.889Z,89.75
2017-11-14T03:59:04.859Z,88.71
2017-11-14T04:02:02.199Z,88.45
2017-11-14T04:04:28.036Z,88.22
2017-11-14T04:24:03.935Z,87.87
2017-11-14T04:43:16.191Z,87.69
2017-11-14T05:02:28.301Z,88.74
2017-11-14T05:11:37.213Z,89.43
2017-11-14T05:14:26.454Z,88.71
2017-11-14T05:17:23.682Z,87.94
2017-11-14T05:20:20.734Z,88.23
2017-11-14T05:23:18.670Z,88.67
2017-11-14T05:33:08.659Z,87.97
2017-11-14T05:35:58.370Z,88.85
2017-11-14T05:38:56.222Z,89.77
2017-11-14T05:41:53.543Z,89.86
2017-11-14T05:54:37.448Z,88.28
2017-11-14T05:57:26.992Z,88.34
2017-11-14T06:00:24.689Z,88.20
2017-11-14T06:16:15.716Z,88.40
2017-11-14T06:19:04.661Z,88.34
2017-11-14T06:22:02.404Z,87.96
2017-11-14T06:25:00.231Z,87.90
2017-11-14T06:37:46.291Z,89.79
2017-11-14T06:40:36.124Z,89.25
2017-11-14T06:43:33.951Z,88.56
2017-11-14T06:46:30.871Z,89.17
2017-11-14T06:49:27.648Z,89.11
2017-11-14T06:52:24.736Z,89.19
2017-11-14T06:55:21.687Z,89.66
2017-11-14T07:14:31.295Z,90.36
2017-11-14T07:23:39.160Z,88.64
2017-11-14T07:26:28.864Z,87.81
2017-11-14T07:29:25.909Z,87.22
2017-11-14T07:32:22.760Z,88.02
2017-11-14T07:45:06.036Z,88.45
2017-11-14T07:47:55.580Z,89.16
2017-11-14T07:50:52.641Z,90.39
2017-11-14T07:53:49.683Z,90.92
2017-11-14T07:56:46.497Z,90.48
2017-11-14T07:59:43.724Z,90.12
2017-11-14T08:02:41.506Z,89.35
2017-11-14T08:08:28.097Z,85.68
2017-11-14T08:11:16.989Z,85.68
2017-11-14T08:14:14.640Z,84.87
2017-11-14T08:17:11.469Z,85.75
2017-11-14T08:20:09.106Z,85.65
2017-11-14T08:23:06.917Z,86.06
2017-11-14T08:26:04.654Z,85.50
2017-11-14T08:29:02.464Z,86.71
2017-11-14T08:48:19.461Z,81.74
2017-11-14T08:51:16.389Z,79.96
2017-11-14T08:53:42.200Z,78.42
2017-11-14T08:56:31.700Z,78.77
2017-11-14T08:59:28.881Z,80.23
2017-11-14T09:15:19.437Z,81.76
2017-11-14T09:18:09.074Z,82.08
2017-11-14T09:21:06.232Z,82.29
2017-11-14T09:24:03.880Z,82.19
2017-11-14T09:27:00.781Z,82.70
2017-11-14T09:29:58.541Z,83.55
2017-11-14T09:32:56.078Z,85.91
2017-11-14T09:38:43.460Z,86.25
2017-11-14T09:41:33.250Z,86.31
2017-11-14T10:00:44.963Z,83.76
2017-11-14T10:03:33.905Z,82.18
2017-11-14T10:06:31.117Z,81.34
2017-11-14T10:09:28.295Z,80.59
2017-11-14T10:12:25.268Z,76.18
2017-11-14T10:15:22.064Z,72.23
2017-11-14T10:18:19.088Z,71.33
2017-11-14T10:21:16.878Z,72.91
2017-11-14T10:23:42.691Z,75.33
2017-11-14T10:26:32.368Z,77.23
2017-11-14T10:45:44.011Z,65.84
2017-11-14T10:48:33.871Z,69.64
2017-11-14T11:07:45.774Z,69.20
2017-11-14T11:27:21.046Z,62.68
2017-11-14T11:29:46.897Z,62.10
2017-11-14T11:32:35.656Z,59.87
2017-11-14T11:35:33.290Z,60.20
2017-11-14T11:38:31.024Z,60.54
2017-11-14T11:41:28.355Z,59.70
2017-11-14T11:51:18.130Z,65.52
2017-11-14T11:54:07.766Z,61.54
2017-11-14T11:57:05.345Z,61.23
2017-11-14T12:00:02.263Z,57.89
2017-11-14T12:03:00.150Z,59.33
2017-11-14T12:05:57.041Z,59.86
2017-11-14T12:08:53.704Z,61.15
2017-11-14T12:14:40.333Z,66.63
2017-11-14T12:17:29.461Z,66.34
2017-11-14T12:20:26.454Z,68.17
2017-11-14T12:23:23.491Z,68.07
2017-11-14T12:26:20.620Z,68.28
2017-11-14T12:29:17.716Z,67.26
2017-11-14T12:32:14.840Z,70.99
2017-11-14T12:35:11.856Z,66.38
2017-11-14T12:37:37.619Z,66.24
2017-11-14T12:57:13.292Z,70.83
2017-11-14T12:59:39.076Z,70.21
2017-11-14T13:02:28.181Z,68.70
2017-11-14T13:21:40.718Z,59.39
2017-11-14T13:24:30.508Z,60.07
2017-11-14T13:43:41.400Z,59.62
2017-11-14T13:46:30.536Z,58.53
2017-11-14T13:49:28.171Z,60.69
2017-11-14T14:05:18.277Z,56.62
2017-11-14T14:24:30.028Z,61.65
2017-11-14T14:27:19.884Z,59.02
2017-11-14T14:30:16.929Z,59.30
2017-11-14T14:33:14.552Z,61.40
2017-11-14T14:46:00.212Z,63.37
2017-11-14T14:48:49.984Z,63.53
2017-11-14T14:51:47.124Z,62.99
2017-11-14T15:10:57.099Z,62.86
2017-11-14T15:13:55.039Z,62.47
2017-11-14T15:16:52.035Z,61.52
2017-11-14T15:19:48.948Z,61.32
2017-11-14T15:29:38.836Z,62.52
2017-11-14T15:32:28.463Z,67.14
2017-11-14T15:51:25.860Z,74.03
2017-11-14T15:54:15.625Z,73.56
2017-11-14T16:12:44.951Z,75.20
2017-11-14T16:15:10.819Z,76.12
2017-11-14T16:17:36.628Z,77.50
2017-11-14T16:20:02.468Z,76.83
2017-11-14T16:22:28.259Z,76.75
2017-11-14T16:24:54.096Z,76.98
2017-11-14T16:27:20.062Z,77.45
2017-11-14T16:29:45.940Z,76.77
2017-11-14T16:32:11.722Z,77.73
2017-11-14T16:34:37.603Z,77.05
2017-11-14T16:37:03.453Z,77.54
2017-11-14T16:56:53.513Z,79.42
2017-11-14T17:16:10.807Z,79.79
2017-11-14T17:21:57.215Z,79.55
2017-11-14T17:24:46.747Z,79.54
2017-11-14T17:27:43.578Z,79.17
2017-11-14T17:30:41.414Z,79.58
2017-11-14T17:33:39.119Z,79.90
2017-11-14T17:36:36.548Z,80.26
2017-11-14T17:39:33.670Z,80.58
2017-11-14T17:42:30.983Z,81.24
2017-11-14T17:44:56.769Z,81.62
2017-11-14T17:47:45.801Z,80.68
2017-11-14T17:50:43.045Z,80.52
2017-11-14T17:53:40.286Z,80.58
2017-11-14T17:56:37.520Z,81.11
2017-11-14T17:59:34.474Z,81.29
2017-11-14T18:02:32.217Z,81.88
2017-11-14T18:05:30.008Z,82.08
2017-11-14T18:24:46.416Z,81.38
2017-11-14T18:27:43.920Z,81.26
2017-11-14T18:30:09.675Z,80.75
2017-11-14T18:32:58.984Z,80.83
2017-11-14T18:35:55.796Z,82.20
2017-11-14T18:38:52.663Z,81.83
2017-11-14T18:50:33.996Z,81.69
2017-11-14T18:52:59.746Z,81.49
2017-11-14T18:55:25.554Z,81.64
2017-11-14T18:57:51.344Z,81.46
2017-11-14T19:00:17.231Z,81.57
2017-11-14T19:02:43.084Z,81.76
2017-11-14T19:05:09.036Z,81.93
2017-11-14T19:07:35.971Z,81.69
2017-11-14T19:10:01.853Z,81.92
2017-11-14T19:12:27.814Z,81.81
2017-11-14T19:14:53.730Z,82.55
2017-11-14T19:17:19.721Z,82.87
2017-11-14T19:19:45.759Z,82.32
2017-11-14T19:22:11.730Z,82.09
2017-11-14T19:24:37.861Z,82.21
2017-11-14T19:27:03.983Z,82.03
2017-11-14T19:29:30.205Z,82.35
2017-11-14T19:31:56.235Z,82.28
2017-11-14T19:34:22.471Z,81.94
2017-11-14T19:36:48.704Z,82.46
2017-11-14T19:39:14.733Z,82.33
2017-11-14T19:41:40.968Z,82.13
2017-11-14T19:44:07.203Z,82.01
2017-11-14T19:46:33.437Z,82.12
2017-11-14T19:48:59.674Z,81.91
2017-11-14T19:51:25.907Z,82.33
2017-11-14T19:53:52.141Z,82.73
2017-11-14T19:56:42.117Z,82.77
2017-11-14T19:59:39.625Z,82.43
2017-11-14T20:02:37.643Z,83.04
2017-11-14T20:05:35.787Z,82.99
2017-11-14T20:15:26.761Z,82.91
2017-11-14T20:18:16.547Z,82.96
2017-11-14T20:21:14.301Z,82.90
2017-11-14T20:40:22.880Z,83.92
2017-11-14T20:59:50.363Z,84.14
2017-11-14T21:02:39.699Z,83.83
2017-11-14T21:05:37.410Z,84.02
2017-11-14T21:24:48.271Z,83.81
2017-11-14T21:47:14.968Z,86.80
2017-11-14T22:06:27.169Z,84.25
2017-11-14T22:09:17.103Z,84.29
2017-11-14T22:12:14.299Z,84.46
2017-11-14T22:15:12.316Z,84.13
2017-11-14T22:28:00.127Z,86.43
2017-11-14T22:30:49.805Z,87.16
2017-11-14T22:33:47.020Z,87.38
2017-11-14T22:36:44.472Z,86.92
2017-11-14T22:39:42.026Z,86.33
2017-11-14T22:49:33.388Z,84.37
2017-11-14T23:09:09.742Z,84.08
2017-11-14T23:11:35.566Z,83.61
2017-11-14T23:14:24.853Z,83.15
2017-11-14T23:33:36.829Z,85.83
2017-11-14T23:36:26.763Z,85.89
2017-11-14T23:39:24.517Z,85.29
2017-11-14T23:42:22.487Z,84.73
2017-11-14T23:55:06.240Z,84.40
2017-11-14T23:57:55.775Z,84.27
